FCPP

Pointe Noire Airport

Pointe Noire, Congo
METAR FCPP 260200Z 04003KT 9999 FEW010 SCT020 FEW030CB 26/24 Q1010 TEMPO TSG
Observed Flight Rules
Feb-26 @ 02:00 UTC (an hour ago) Visual Flight Rules
Wind Visibility Clouds
40° at 3 knots 10,000+ meters
  • Few at 1,000' AGL
  • Scattered at 2,000' AGL
  • Few at 3,000' AGL
Temperatures Readings
Current 26°C / 79°F
Dewpoint 24°C / 75°F
Humidity 89%
Altimeter 29.82" Hg
Pressure 1010 hPa
Elevation 17
METAR FCPP 260200Z 04003KT 9999 FEW010 SCT020 FEW030CB 26/24 Q1010 TEMPO TSG
Observed Flight Rules
Feb-26 @ 02:00 UTC
(an hour ago)
VFR
Wind Visibility
40° at 3 knots 10,000+ meters
Clouds
  • Few at 1,000' AGL
  • Scattered at 2,000' AGL
  • Few at 3,000' AGL
Temperature Dewpoint
26°C / 79°F 24°C / 75°F
Humidity Altimeter Pressure
89% 29.82" Hg 1010 hPa